EZY1361 EGCC-EGLL
Flight info
| Callsign | EZY1361 |
|---|---|
| Flight time | 0h 32m |
| Altitude | 19000 |
| Route | SANBA N859 HON |
| Aircraft | A20N/M-SDE2E3FGHIRWXY/LB1 |
Departure
| Time | 2026-05-07 12:56 |
|---|---|
| Airport | Manchester Airport (EGCC) |
Arrival
| Time | 2026-05-07 13:28 |
|---|---|
| Airport | London Heathrow Airport (EGLL) |
| Time | Latitude | Longitude | Altitude | Speed | Heading |
|---|---|---|---|---|---|
| 2026-05-07 12:55 | 53.24473 | -2.37779 | 5764 ft | 231 kts | 201° |
| 2026-05-07 12:56 | 53.22922 | -2.38776 | 6452 ft | 250 kts | 200° |
| 2026-05-07 12:56 | 53.21152 | -2.39149 | 7296 ft | 259 kts | 175° |
| 2026-05-07 12:56 | 53.19440 | -2.38241 | 8341 ft | 267 kts | 155° |
| 2026-05-07 12:56 | 53.17779 | -2.36805 | 9381 ft | 271 kts | 154° |
| 2026-05-07 12:57 | 53.16095 | -2.35314 | 10413 ft | 275 kts | 154° |
| 2026-05-07 12:57 | 53.14340 | -2.33769 | 10891 ft | 299 kts | 154° |
| 2026-05-07 12:57 | 53.12416 | -2.32086 | 11274 ft | 322 kts | 154° |
| 2026-05-07 12:57 | 53.10405 | -2.30330 | 12010 ft | 330 kts | 154° |
| 2026-05-07 12:58 | 53.08376 | -2.28561 | 12920 ft | 334 kts | 154° |
| 2026-05-07 12:58 | 53.06288 | -2.26747 | 13774 ft | 340 kts | 154° |
| 2026-05-07 12:58 | 53.04191 | -2.24927 | 14586 ft | 343 kts | 154° |
| 2026-05-07 12:58 | 53.02052 | -2.23073 | 15401 ft | 347 kts | 154° |
| 2026-05-07 12:59 | 52.99897 | -2.21207 | 16165 ft | 353 kts | 154° |
| 2026-05-07 12:59 | 52.97702 | -2.19307 | 16907 ft | 358 kts | 154° |
| 2026-05-07 12:59 | 52.95499 | -2.17398 | 17643 ft | 363 kts | 154° |
| 2026-05-07 12:59 | 52.93249 | -2.15449 | 18362 ft | 368 kts | 154° |
| 2026-05-07 13:00 | 52.90948 | -2.13458 | 18833 ft | 372 kts | 154° |
| 2026-05-07 13:00 | 52.88656 | -2.11479 | 19000 ft | 372 kts | 154° |
| 2026-05-07 13:00 | 52.86356 | -2.09495 | 19032 ft | 372 kts | 154° |
| 2026-05-07 13:00 | 52.84065 | -2.07521 | 19036 ft | 373 kts | 154° |
| 2026-05-07 13:01 | 52.81773 | -2.05553 | 19035 ft | 373 kts | 154° |
| 2026-05-07 13:01 | 52.79477 | -2.03584 | 19035 ft | 372 kts | 154° |
| 2026-05-07 13:01 | 52.77192 | -2.01623 | 19035 ft | 372 kts | 154° |
| 2026-05-07 13:01 | 52.74871 | -1.99635 | 19040 ft | 373 kts | 154° |
| 2026-05-07 13:02 | 52.72573 | -1.97668 | 19037 ft | 373 kts | 154° |
| 2026-05-07 13:02 | 52.70280 | -1.95706 | 19033 ft | 373 kts | 154° |
| 2026-05-07 13:02 | 52.67990 | -1.93748 | 19038 ft | 373 kts | 154° |
| 2026-05-07 13:02 | 52.65682 | -1.91779 | 19041 ft | 373 kts | 154° |
| 2026-05-07 13:03 | 52.63388 | -1.89824 | 19035 ft | 373 kts | 154° |
| 2026-05-07 13:03 | 52.61089 | -1.87866 | 19034 ft | 373 kts | 154° |
| 2026-05-07 13:03 | 52.59530 | -1.86540 | 19047 ft | 373 kts | 154° |
| 2026-05-07 13:03 | 52.57230 | -1.84586 | 19043 ft | 373 kts | 154° |
| 2026-05-07 13:04 | 52.54933 | -1.82637 | 19044 ft | 373 kts | 154° |
| 2026-05-07 13:04 | 52.52643 | -1.80696 | 19045 ft | 373 kts | 154° |
| 2026-05-07 13:04 | 52.50315 | -1.78725 | 19045 ft | 373 kts | 154° |
| 2026-05-07 13:04 | 52.48016 | -1.76781 | 19042 ft | 373 kts | 154° |
| 2026-05-07 13:05 | 52.45719 | -1.74840 | 19054 ft | 373 kts | 154° |
| 2026-05-07 13:05 | 52.43398 | -1.72882 | 19045 ft | 373 kts | 154° |
| 2026-05-07 13:05 | 52.41094 | -1.70941 | 19047 ft | 373 kts | 154° |
| 2026-05-07 13:05 | 52.38778 | -1.68991 | 19047 ft | 373 kts | 154° |
| 2026-05-07 13:06 | 52.36499 | -1.67002 | 19040 ft | 374 kts | 150° |
| 2026-05-07 13:06 | 52.34357 | -1.64560 | 19050 ft | 376 kts | 143° |
| 2026-05-07 13:06 | 52.32387 | -1.61784 | 19049 ft | 376 kts | 141° |
| 2026-05-07 13:06 | 52.30401 | -1.58960 | 19070 ft | 376 kts | 141° |
| 2026-05-07 13:07 | 52.28438 | -1.56181 | 19074 ft | 376 kts | 141° |
| 2026-05-07 13:07 | 52.26450 | -1.53379 | 19072 ft | 377 kts | 141° |
| 2026-05-07 13:07 | 52.24451 | -1.50570 | 19075 ft | 377 kts | 141° |
| 2026-05-07 13:07 | 52.22478 | -1.47801 | 19064 ft | 377 kts | 141° |
| 2026-05-07 13:08 | 52.20481 | -1.45003 | 19071 ft | 377 kts | 141° |
| 2026-05-07 13:08 | 52.18485 | -1.42211 | 18945 ft | 377 kts | 141° |
| 2026-05-07 13:08 | 52.16510 | -1.39449 | 18706 ft | 376 kts | 141° |
| 2026-05-07 13:08 | 52.14537 | -1.36694 | 18272 ft | 376 kts | 141° |
| 2026-05-07 13:09 | 52.12552 | -1.33925 | 17693 ft | 373 kts | 141° |
| 2026-05-07 13:09 | 52.10586 | -1.31186 | 17163 ft | 368 kts | 141° |
| 2026-05-07 13:09 | 52.08651 | -1.28493 | 16627 ft | 363 kts | 141° |
| 2026-05-07 13:09 | 52.06759 | -1.25864 | 16107 ft | 359 kts | 141° |
| 2026-05-07 13:10 | 52.04866 | -1.23237 | 15714 ft | 351 kts | 141° |
| 2026-05-07 13:10 | 52.03059 | -1.20729 | 15562 ft | 337 kts | 141° |
| 2026-05-07 13:10 | 52.01312 | -1.18307 | 15424 ft | 323 kts | 141° |
| 2026-05-07 13:10 | 51.99626 | -1.15973 | 15302 ft | 310 kts | 141° |
| 2026-05-07 13:11 | 51.98015 | -1.13746 | 15191 ft | 298 kts | 141° |
| 2026-05-07 13:11 | 51.96481 | -1.11628 | 15096 ft | 285 kts | 141° |
| 2026-05-07 13:11 | 51.94992 | -1.09574 | 14993 ft | 274 kts | 141° |
| 2026-05-07 13:11 | 51.93564 | -1.07607 | 14662 ft | 271 kts | 141° |
| 2026-05-07 13:12 | 51.92128 | -1.05632 | 14320 ft | 270 kts | 141° |
| 2026-05-07 13:12 | 51.90691 | -1.03658 | 13990 ft | 268 kts | 141° |
| 2026-05-07 13:12 | 51.89278 | -1.01718 | 13641 ft | 267 kts | 141° |
| 2026-05-07 13:12 | 51.87862 | -0.99773 | 13160 ft | 265 kts | 141° |
| 2026-05-07 13:13 | 51.86475 | -0.97868 | 12797 ft | 264 kts | 140° |
| 2026-05-07 13:13 | 51.85218 | -0.95688 | 12363 ft | 265 kts | 127° |
| 2026-05-07 13:13 | 51.84310 | -0.93110 | 11998 ft | 265 kts | 117° |
| 2026-05-07 13:13 | 51.83510 | -0.90419 | 11657 ft | 263 kts | 117° |
| 2026-05-07 13:14 | 51.82707 | -0.87764 | 11312 ft | 261 kts | 117° |
| 2026-05-07 13:14 | 51.81911 | -0.85161 | 10970 ft | 260 kts | 118° |
| 2026-05-07 13:14 | 51.81108 | -0.82543 | 10634 ft | 258 kts | 117° |
| 2026-05-07 13:14 | 51.80308 | -0.79938 | 10296 ft | 257 kts | 117° |
| 2026-05-07 13:15 | 51.79521 | -0.77376 | 9964 ft | 256 kts | 117° |
| 2026-05-07 13:15 | 51.78728 | -0.74791 | 9615 ft | 254 kts | 117° |
| 2026-05-07 13:15 | 51.77941 | -0.72231 | 9293 ft | 262 kts | 117° |
| 2026-05-07 13:15 | 51.77119 | -0.69564 | 9149 ft | 263 kts | 117° |
| 2026-05-07 13:16 | 51.76329 | -0.66996 | 8997 ft | 253 kts | 117° |
| 2026-05-07 13:16 | 51.75549 | -0.64463 | 8540 ft | 251 kts | 117° |
| 2026-05-07 13:16 | 51.74769 | -0.61939 | 8029 ft | 251 kts | 117° |
| 2026-05-07 13:16 | 51.73991 | -0.59423 | 7597 ft | 247 kts | 118° |
| 2026-05-07 13:17 | 51.73213 | -0.57021 | 7280 ft | 244 kts | 127° |
| 2026-05-07 13:17 | 51.71938 | -0.55271 | 7123 ft | 241 kts | 158° |
| 2026-05-07 13:17 | 51.70318 | -0.54787 | 7074 ft | 237 kts | 179° |
| 2026-05-07 13:17 | 51.68682 | -0.54703 | 7069 ft | 238 kts | 179° |
| 2026-05-07 13:18 | 51.67023 | -0.54624 | 7071 ft | 238 kts | 179° |
| 2026-05-07 13:18 | 51.65364 | -0.54534 | 7076 ft | 238 kts | 179° |
| 2026-05-07 13:18 | 51.63722 | -0.54446 | 7070 ft | 238 kts | 182° |
| 2026-05-07 13:18 | 51.62145 | -0.55124 | 7077 ft | 236 kts | 213° |
| 2026-05-07 13:19 | 51.61016 | -0.57018 | 7079 ft | 236 kts | 241° |
| 2026-05-07 13:19 | 51.60434 | -0.59462 | 7071 ft | 237 kts | 256° |
| 2026-05-07 13:19 | 51.60152 | -0.62088 | 7075 ft | 236 kts | 263° |
| 2026-05-07 13:19 | 51.60001 | -0.64701 | 7067 ft | 237 kts | 265° |
| 2026-05-07 13:20 | 51.59879 | -0.67303 | 7003 ft | 229 kts | 265° |
| 2026-05-07 13:20 | 51.59752 | -0.69807 | 6925 ft | 218 kts | 264° |
| 2026-05-07 13:20 | 51.59622 | -0.72150 | 6842 ft | 207 kts | 264° |
| 2026-05-07 13:20 | 51.59490 | -0.74382 | 6753 ft | 196 kts | 264° |
| 2026-05-07 13:21 | 51.59332 | -0.76511 | 6620 ft | 184 kts | 254° |
| 2026-05-07 13:21 | 51.58668 | -0.78259 | 6166 ft | 186 kts | 224° |
| 2026-05-07 13:21 | 51.57580 | -0.79355 | 5763 ft | 187 kts | 202° |
| 2026-05-07 13:21 | 51.56316 | -0.79858 | 5364 ft | 189 kts | 189° |
| 2026-05-07 13:22 | 51.55001 | -0.79983 | 5056 ft | 186 kts | 182° |
| 2026-05-07 13:22 | 51.53765 | -0.79932 | 4944 ft | 173 kts | 180° |
| 2026-05-07 13:22 | 51.52577 | -0.79836 | 4717 ft | 169 kts | 179° |
| 2026-05-07 13:22 | 51.51393 | -0.79741 | 4427 ft | 168 kts | 179° |
| 2026-05-07 13:23 | 51.50247 | -0.79447 | 4114 ft | 172 kts | 155° |
| 2026-05-07 13:23 | 51.49280 | -0.78323 | 3879 ft | 171 kts | 139° |
| 2026-05-07 13:23 | 51.48498 | -0.76917 | 3602 ft | 170 kts | 124° |
| 2026-05-07 13:23 | 51.47983 | -0.75212 | 3347 ft | 170 kts | 109° |
| 2026-05-07 13:24 | 51.47725 | -0.73384 | 3154 ft | 167 kts | 97° |
| 2026-05-07 13:24 | 51.47644 | -0.71473 | 2942 ft | 173 kts | 91° |
| 2026-05-07 13:24 | 51.47632 | -0.69573 | 2718 ft | 171 kts | 90° |
| 2026-05-07 13:24 | 51.47635 | -0.67674 | 2489 ft | 168 kts | 90° |
| 2026-05-07 13:25 | 51.47643 | -0.65791 | 2262 ft | 168 kts | 90° |
| 2026-05-07 13:25 | 51.47652 | -0.63947 | 2038 ft | 167 kts | 89° |
| 2026-05-07 13:25 | 51.47668 | -0.62088 | 1808 ft | 166 kts | 90° |
| 2026-05-07 13:25 | 51.47673 | -0.60297 | 1594 ft | 151 kts | 90° |
| 2026-05-07 13:26 | 51.47681 | -0.58689 | 1387 ft | 137 kts | 90° |
| 2026-05-07 13:26 | 51.47688 | -0.57217 | 1218 ft | 135 kts | 90° |
| 2026-05-07 13:26 | 51.47696 | -0.55700 | 1028 ft | 134 kts | 91° |
| 2026-05-07 13:26 | 51.47700 | -0.54241 | 835 ft | 129 kts | 91° |
| 2026-05-07 13:27 | 51.47708 | -0.52820 | 658 ft | 126 kts | 91° |
| 2026-05-07 13:27 | 51.47718 | -0.51410 | 486 ft | 125 kts | 91° |
| 2026-05-07 13:27 | 51.47743 | -0.50028 | 332 ft | 126 kts | 91° |
| 2026-05-07 13:27 | 51.47746 | -0.48640 | 153 ft | 124 kts | 91° |
| 2026-05-07 13:28 | 51.47752 | -0.47298 | 87 ft | 110 kts | 89° |
| 2026-05-07 13:28 | 51.47754 | -0.46306 | 92 ft | 62 kts | 91° |
| 2026-05-07 13:28 | 51.47751 | -0.45788 | 85 ft | 43 kts | 91° |
| 2026-05-07 13:28 | 51.47732 | -0.45498 | 89 ft | 18 kts | 131° |
| 2026-05-07 13:29 | 51.47619 | -0.45469 | 88 ft | 17 kts | 179° |
| 2026-05-07 13:29 | 51.47550 | -0.45467 | 89 ft | 7 kts | 179° |
| 2026-05-07 13:29 | 51.47512 | -0.45507 | 92 ft | 10 kts | 246° |
| 2026-05-07 13:29 | 51.47508 | -0.45673 | 90 ft | 19 kts | 274° |
| 2026-05-07 13:30 | 51.47516 | -0.45895 | 89 ft | 20 kts | 271° |
| 2026-05-07 13:30 | 51.47514 | -0.46120 | 91 ft | 21 kts | 268° |
| 2026-05-07 13:30 | 51.47515 | -0.46370 | 89 ft | 23 kts | 270° |
| 2026-05-07 13:30 | 51.47516 | -0.46604 | 92 ft | 18 kts | 270° |
| 2026-05-07 13:31 | 51.47513 | -0.46713 | 90 ft | 10 kts | 259° |
| 2026-05-07 13:31 | 51.47455 | -0.46755 | 89 ft | 12 kts | 175° |
| 2026-05-07 13:31 | 51.47361 | -0.46728 | 87 ft | 15 kts | 175° |
| 2026-05-07 13:31 | 51.47262 | -0.46723 | 85 ft | 0 kts | 179° |
| 2026-05-07 13:32 | 51.47256 | -0.46722 | 85 ft | 1 kts | 179° |
| 2026-05-07 13:32 | 51.47246 | -0.46722 | 85 ft | 1 kts | 179° |
| 2026-05-07 13:32 | 51.47244 | -0.46721 | 85 ft | 1 kts | 171° |
| 2026-05-07 13:32 | 51.47243 | -0.46716 | 85 ft | 1 kts | 136° |
| 2026-05-07 13:33 | 51.47243 | -0.46688 | 85 ft | 7 kts | 96° |
| 2026-05-07 13:33 | 51.47240 | -0.46558 | 87 ft | 15 kts | 90° |
| 2026-05-07 13:33 | 51.47208 | -0.46388 | 89 ft | 17 kts | 139° |
| 2026-05-07 13:33 | 51.47136 | -0.46311 | 87 ft | 0 kts | 148° |
| 2026-05-07 13:34 | 51.47086 | -0.46281 | 89 ft | 15 kts | 188° |
| 2026-05-07 13:34 | 51.47031 | -0.46375 | 88 ft | 0 kts | 236° |